Time;durP1;ratioP1;P1;durP2;ratioP2;P2;SDS_P1;SDS_P2;PMS_P1;PMS_P2;Temp;Humidity;BMP_temperature;BMP_pressure;BME280_temperature;BME280_humidity;BME280_pressure;Samples;Min_cycle;Max_cycle;Signal;HPM_P1;HPM_P2
2023/04/30 00:00:45;;;;;;;11.32;5.20;;;;;;;13.75;62.13;100686.84;5072900;28;20138;-42
2023/04/30 00:03:11;;;;;;;12.27;6.65;;;;;;;13.74;61.78;100690.28;5072341;28;20068;-42
2023/04/30 00:05:38;;;;;;;12.25;5.80;;;;;;;13.74;62.30;100687.69;5076621;28;20071;-42
2023/04/30 00:08:05;;;;;;;15.65;6.75;;;;;;;13.74;61.86;100690.28;5072350;28;20106;-42
2023/04/30 00:10:31;;;;;;;11.45;5.35;;;;;;;13.71;61.81;100690.34;5073009;28;20508;-42
2023/04/30 00:12:58;;;;;;;13.55;6.80;;;;;;;13.69;62.45;100686.88;5073625;28;20071;-41
2023/04/30 00:15:24;;;;;;;11.60;6.13;;;;;;;13.66;62.62;100681.66;5065423;28;20056;-42
2023/04/30 00:17:52;;;;;;;12.85;5.68;;;;;;;13.64;62.88;100683.44;5074335;28;20049;-43
2023/04/30 00:20:18;;;;;;;13.75;6.25;;;;;;;13.57;61.99;100683.44;5067355;28;20045;-42
2023/04/30 00:22:45;;;;;;;12.00;4.32;;;;;;;13.52;62.59;100677.41;5070770;28;20088;-42
2023/04/30 00:25:12;;;;;;;14.50;6.28;;;;;;;13.44;63.38;100681.75;5074684;28;20541;-40
2023/04/30 00:27:38;;;;;;;12.93;6.72;;;;;;;13.40;63.80;100680.03;5069844;28;20683;-42
2023/04/30 00:30:06;;;;;;;17.30;6.63;;;;;;;13.38;63.52;100682.66;5072979;28;20478;-42
2023/04/30 00:32:33;;;;;;;13.13;5.82;;;;;;;13.32;62.90;100683.53;5075399;28;20093;-44
2023/04/30 00:35:00;;;;;;;14.38;6.70;;;;;;;13.28;63.54;100683.53;5069257;28;20078;-42
2023/04/30 00:37:26;;;;;;;11.80;6.25;;;;;;;13.23;63.63;100683.56;5069867;28;20145;-47
2023/04/30 00:39:53;;;;;;;14.18;6.90;;;;;;;13.21;63.25;100682.72;5075663;28;20078;-40
2023/04/30 00:42:20;;;;;;;15.20;6.40;;;;;;;13.19;63.15;100681.84;5083642;28;20595;-43
2023/04/30 00:44:47;;;;;;;14.65;6.03;;;;;;;13.18;63.13;100680.13;5078917;28;20671;-43
2023/04/30 00:47:14;;;;;;;15.50;6.15;;;;;;;13.15;64.19;100686.19;5072316;28;20511;-44
2023/04/30 00:49:40;;;;;;;12.48;6.50;;;;;;;13.10;64.29;100681.00;5076973;28;20084;-43
2023/04/30 00:52:07;;;;;;;14.00;6.50;;;;;;;13.09;64.47;100687.09;5068390;28;20048;-44
2023/04/30 00:54:35;;;;;;;17.35;7.18;;;;;;;13.09;63.51;100684.47;5077516;28;20106;-42
2023/04/30 00:57:04;;;;;;;13.70;6.68;;;;;;;13.06;63.87;100683.59;5079796;28;20144;-41
2023/04/30 00:59:31;;;;;;;16.20;7.60;;;;;;;13.02;64.04;100684.50;5076129;28;20153;-42
2023/04/30 01:01:58;;;;;;;16.42;7.25;;;;;;;12.97;64.42;100684.53;5074366;28;20052;-44
2023/04/30 01:04:25;;;;;;;11.85;6.68;;;;;;;12.95;64.61;100688.84;5067644;28;20591;-43
2023/04/30 01:06:52;;;;;;;16.48;7.65;;;;;;;12.94;65.32;100687.13;5080586;28;20044;-42
2023/04/30 01:09:19;;;;;;;12.93;6.35;;;;;;;12.90;65.00;100685.41;5071906;28;20071;-43
2023/04/30 01:20:12;;;;;;;15.43;7.13;;;;;;;12.80;66.56;100685.41;5051858;28;20391;-41
2023/04/30 01:23:10;;;;;;;16.35;7.20;;;;;;;12.75;66.13;100675.88;5039372;28;20045;-41
2023/04/30 01:28:19;;;;;;;19.50;7.97;;;;;;;12.75;66.73;100687.16;5034415;28;20414;-42
2023/04/30 01:30:46;;;;;;;21.90;8.07;;;;;;;12.73;67.46;100678.47;4974732;28;20100;-41
2023/04/30 01:33:12;;;;;;;14.45;6.90;;;;;;;12.69;67.56;100672.44;4975409;28;20605;-42
2023/04/30 01:44:20;;;;;;;17.35;7.80;;;;;;;12.63;67.99;100681.97;5046429;28;20387;-42
2023/04/30 01:47:03;;;;;;;19.88;8.82;;;;;;;12.66;67.83;100681.97;5003695;28;20139;-42
2023/04/30 01:52:16;;;;;;;21.73;9.00;;;;;;;12.62;69.08;100675.91;5073990;27;20424;-42
2023/04/30 01:54:45;;;;;;;;;;;;;;;12.46;68.81;100677.63;5020334;28;20084;-42
2023/04/30 01:57:26;;;;;;;21.85;8.00;;;;;;;12.53;68.56;100673.31;5011648;28;19921;-41
2023/04/30 01:59:53;;;;;;;20.23;9.18;;;;;;;12.51;68.99;100673.31;5063096;28;20545;-41
2023/04/30 02:02:20;;;;;;;18.48;8.57;;;;;;;12.51;68.14;100673.31;5025250;28;20041;-42
2023/04/30 02:04:47;;;;;;;20.45;8.10;;;;;;;12.51;68.25;100672.44;5014992;28;20178;-41
2023/04/30 02:07:28;;;;;;;19.65;7.78;;;;;;;12.45;69.21;100676.78;5022794;28;20072;-43
2023/04/30 02:09:55;;;;;;;22.33;8.10;;;;;;;12.44;68.65;100680.25;5038503;28;20079;-42
2023/04/30 02:12:21;;;;;;;22.17;9.10;;;;;;;12.41;69.34;100677.66;5036577;28;20053;-40
2023/04/30 02:14:48;;;;;;;20.75;9.27;;;;;;;12.39;69.09;100678.53;5042888;28;20618;-41
2023/04/30 02:17:14;;;;;;;21.73;8.23;;;;;;;12.34;69.24;100676.78;5035821;28;20132;-43
2023/04/30 02:19:41;;;;;;;19.25;7.55;;;;;;;12.31;68.48;100679.38;5040560;28;20703;-40
2023/04/30 02:22:08;;;;;;;17.55;7.45;;;;;;;12.28;68.21;100681.97;5039919;28;20042;-43
2023/04/30 02:24:35;;;;;;;22.33;8.60;;;;;;;12.22;69.65;100671.56;5038260;28;20049;-41
2023/04/30 02:27:02;;;;;;;24.52;9.93;;;;;;;12.21;69.65;100680.25;5037970;28;20073;-41
2023/04/30 02:29:28;;;;;;;24.20;9.63;;;;;;;12.17;69.00;100675.91;5041151;28;20479;-44
2023/04/30 02:31:57;;;;;;;18.83;9.00;;;;;;;12.13;69.64;100676.78;5039137;28;20049;-42
2023/04/30 02:34:24;;;;;;;22.05;9.13;;;;;;;12.08;69.47;100682.84;5037095;28;21007;-40
2023/04/30 02:36:51;;;;;;;20.83;9.52;;;;;;;12.06;69.47;100674.16;5034269;28;20080;-44
2023/04/30 02:39:17;;;;;;;19.50;8.90;;;;;;;12.04;68.90;100677.59;5038586;28;20045;-41
2023/04/30 02:41:44;;;;;;;22.75;9.52;;;;;;;12.00;69.65;100671.53;5042626;28;20569;-40
2023/04/30 02:44:11;;;;;;;23.10;9.18;;;;;;;12.01;68.65;100678.47;5037608;28;20497;-40
2023/04/30 02:46:37;;;;;;;20.63;9.60;;;;;;;12.00;69.46;100674.13;5034990;28;20055;-41
2023/04/30 02:49:04;;;;;;;26.95;10.68;;;;;;;11.99;69.63;100682.78;5033705;28;20088;-42
2023/04/30 02:51:31;;;;;;;24.23;11.20;;;;;;;12.01;68.45;100682.78;5031518;28;20137;-42
2023/04/30 02:53:58;;;;;;;27.00;11.63;;;;;;;12.00;69.61;100681.06;5040734;28;20136;-41
2023/04/30 02:56:24;;;;;;;25.65;9.88;;;;;;;12.00;69.21;100681.94;5034496;28;20069;-40
2023/04/30 02:58:51;;;;;;;26.23;11.13;;;;;;;11.99;69.33;100680.19;5036724;28;20069;-40
2023/04/30 03:01:18;;;;;;;23.67;9.25;;;;;;;11.96;68.76;100685.38;5031491;28;20046;-41
2023/04/30 03:03:44;;;;;;;26.35;10.07;;;;;;;11.94;69.40;100689.69;5022529;28;20042;-41
2023/04/30 03:06:11;;;;;;;24.50;10.65;;;;;;;11.86;69.66;100684.50;5017655;28;20045;-44
2023/04/30 03:08:38;;;;;;;24.75;10.02;;;;;;;11.89;69.05;100694.03;5027687;28;20075;-43
2023/04/30 03:11:04;;;;;;;22.90;10.40;;;;;;;11.85;69.12;100692.28;5028301;28;20520;-42
2023/04/30 03:13:31;;;;;;;26.38;10.68;;;;;;;11.81;68.93;100692.28;5019554;28;20115;-41
2023/04/30 03:15:59;;;;;;;23.75;9.45;;;;;;;11.82;68.82;100698.31;5023454;28;20077;-43
2023/04/30 03:18:27;;;;;;;21.02;9.05;;;;;;;11.79;68.49;100693.97;5019744;28;20049;-42
2023/04/30 03:20:54;;;;;;;25.45;10.52;;;;;;;11.79;68.49;100691.38;5028603;28;20189;-41
2023/04/30 03:23:20;;;;;;;27.38;10.45;;;;;;;11.79;67.61;100693.13;5018095;28;20058;-42
2023/04/30 03:25:47;;;;;;;26.05;10.52;;;;;;;11.81;67.88;100692.28;5021475;28;20160;-43
2023/04/30 03:28:14;;;;;;;22.60;9.80;;;;;;;11.81;67.98;100687.06;5017977;28;20046;-42
2023/04/30 03:30:41;;;;;;;25.83;9.50;;;;;;;11.80;68.92;100685.34;5023438;28;20073;-40
2023/04/30 03:33:07;;;;;;;21.48;9.32;;;;;;;11.82;68.36;100686.22;5021980;28;20132;-42
2023/04/30 03:35:34;;;;;;;27.02;11.48;;;;;;;11.86;67.70;100678.44;5012474;28;20136;-41
2023/04/30 03:38:01;;;;;;;24.30;10.73;;;;;;;11.88;68.36;100684.47;5000926;28;20148;-41
2023/04/30 03:40:28;;;;;;;24.00;10.45;;;;;;;11.91;68.88;100676.72;5006177;28;20132;-42
2023/04/30 03:42:54;;;;;;;22.88;9.35;;;;;;;11.92;68.79;100683.66;5022496;28;20045;-41
2023/04/30 03:45:21;;;;;;;22.33;10.60;;;;;;;11.91;67.38;100672.38;5025918;28;20127;-42
2023/04/30 03:47:50;;;;;;;24.23;10.38;;;;;;;11.93;68.50;100675.84;5015712;28;20132;-41
2023/04/30 03:50:17;;;;;;;21.17;9.02;;;;;;;11.91;67.52;100672.38;5021715;28;20049;-43
2023/04/30 03:52:44;;;;;;;22.83;9.15;;;;;;;11.87;67.94;100674.97;5022266;28;20588;-41
2023/04/30 03:55:11;;;;;;;22.52;9.73;;;;;;;11.83;67.86;100685.34;5025069;28;20069;-44
2023/04/30 03:57:40;;;;;;;26.10;9.32;;;;;;;11.80;68.17;100685.34;5002435;28;20077;-43
2023/04/30 04:00:09;;;;;;;21.63;10.05;;;;;;;11.79;68.35;100678.41;5022077;28;20080;-43
2023/04/30 04:02:36;;;;;;;22.25;8.98;;;;;;;11.77;67.88;100680.16;5025681;28;20042;-41
2023/04/30 04:05:03;;;;;;;16.95;8.52;;;;;;;11.77;68.58;100680.16;5023923;28;20069;-42
2023/04/30 04:07:30;;;;;;;18.88;8.88;;;;;;;11.76;67.32;100682.75;5027214;28;20072;-40
2023/04/30 04:09:56;;;;;;;22.70;9.07;;;;;;;11.73;68.58;100682.72;5026564;28;20152;-41
2023/04/30 04:12:23;;;;;;;24.23;9.65;;;;;;;11.71;67.66;100685.31;5028392;28;20104;-41
2023/04/30 04:14:50;;;;;;;20.85;8.25;;;;;;;11.70;67.64;100679.28;5020382;28;20140;-40
2023/04/30 04:17:16;;;;;;;18.08;8.20;;;;;;;11.70;68.17;100675.81;5024315;28;20085;-42
2023/04/30 04:19:43;;;;;;;18.25;7.55;;;;;;;11.67;68.58;100684.44;5019100;28;20041;-41
2023/04/30 04:22:10;;;;;;;23.23;9.32;;;;;;;11.65;67.39;100685.31;5021381;28;20181;-42
2023/04/30 04:24:37;;;;;;;20.55;8.90;;;;;;;11.64;68.87;100675.78;5023557;28;20111;-41
2023/04/30 04:27:04;;;;;;;20.42;9.45;;;;;;;11.63;68.23;100676.66;5025091;28;20501;-42
2023/04/30 04:29:31;;;;;;;19.67;8.98;;;;;;;11.63;68.27;100681.84;5020658;28;20536;-43
2023/04/30 04:31:59;;;;;;;23.45;9.15;;;;;;;11.59;67.61;100685.28;5018327;28;20411;-40
2023/04/30 04:34:26;;;;;;;21.27;8.43;;;;;;;11.56;68.03;100686.16;5017162;28;20129;-42
2023/04/30 04:36:52;;;;;;;23.42;9.07;;;;;;;11.54;68.46;100688.72;5023055;28;20451;-42
2023/04/30 04:39:19;;;;;;;19.20;8.13;;;;;;;11.49;68.38;100690.44;5022102;28;20136;-42
2023/04/30 04:41:45;;;;;;;18.83;8.93;;;;;;;11.48;68.89;100680.91;5019148;28;20073;-42
2023/04/30 04:44:12;;;;;;;24.55;9.82;;;;;;;11.49;68.76;100684.38;5022055;28;20708;-41
2023/04/30 04:46:41;;;;;;;26.92;10.07;;;;;;;11.46;68.50;100684.38;5020611;28;20537;-42
2023/04/30 04:49:07;;;;;;;23.33;10.45;;;;;;;11.38;68.69;100669.63;5021457;28;20045;-40
2023/04/30 04:51:34;;;;;;;22.92;9.95;;;;;;;11.34;69.29;100674.81;5023808;28;20041;-40
2023/04/30 04:54:01;;;;;;;24.00;10.63;;;;;;;11.32;68.85;100680.84;5019734;28;20072;-40
2023/04/30 04:56:28;;;;;;;27.25;9.60;;;;;;;11.31;68.95;100681.72;5018555;28;20077;-41
2023/04/30 04:58:54;;;;;;;28.13;10.98;;;;;;;11.30;67.90;100685.19;5017916;28;20045;-41
2023/04/30 05:01:21;;;;;;;26.52;9.52;;;;;;;11.27;68.34;100679.97;5023656;28;20091;-46
2023/04/30 05:03:48;;;;;;;27.17;11.43;;;;;;;11.26;68.61;100683.44;5021080;28;20037;-41
2023/04/30 05:06:16;;;;;;;25.10;11.15;;;;;;;11.27;68.63;100687.75;5023227;28;20456;-40
2023/04/30 05:08:43;;;;;;;25.85;10.20;;;;;;;11.27;67.78;100689.47;5020976;28;20075;-41
2023/04/30 05:11:11;;;;;;;22.65;10.02;;;;;;;11.25;67.65;100692.06;5021999;28;20140;-43
2023/04/30 05:13:40;;;;;;;25.65;8.75;;;;;;;11.16;68.71;100686.84;5025052;28;20044;-40
2023/04/30 05:16:07;;;;;;;26.75;11.18;;;;;;;11.14;68.41;100686.81;5012704;28;20077;-41
2023/04/30 05:18:34;;;;;;;16.85;7.63;;;;;;;11.12;68.84;100685.09;5014893;28;20131;-40
2023/04/30 05:21:00;;;;;;;18.33;8.13;;;;;;;11.06;69.33;100685.91;5014312;28;20056;-40
2023/04/30 05:23:27;;;;;;;22.02;8.88;;;;;;;11.02;69.42;100685.00;5019793;28;20808;-41
2023/04/30 05:25:54;;;;;;;20.13;9.57;;;;;;;10.95;68.58;100683.28;5017302;28;20839;-42
2023/04/30 05:28:20;;;;;;;22.65;9.43;;;;;;;11.02;68.29;100687.59;5018467;28;20581;-44
2023/04/30 05:30:47;;;;;;;25.30;10.13;;;;;;;11.09;68.63;100685.06;5018602;28;20053;-43
2023/04/30 05:33:13;;;;;;;27.42;10.32;;;;;;;11.14;68.69;100684.22;5013676;28;20076;-40
2023/04/30 05:35:40;;;;;;;24.05;9.45;;;;;;;11.23;68.32;100696.38;5017261;28;20143;-40
2023/04/30 05:38:07;;;;;;;26.83;9.23;;;;;;;11.26;67.81;100695.53;5016163;28;20859;-42
2023/04/30 05:40:34;;;;;;;25.30;9.25;;;;;;;11.29;67.51;100691.19;5027825;28;20041;-41
2023/04/30 05:43:01;;;;;;;23.38;10.00;;;;;;;11.37;67.92;100690.38;5017581;28;20100;-42
2023/04/30 05:45:27;;;;;;;21.98;8.68;;;;;;;11.46;67.49;100689.56;5020913;28;20281;-42
2023/04/30 05:47:54;;;;;;;17.58;7.53;;;;;;;11.49;68.27;100692.16;5022134;28;20505;-41
2023/04/30 05:50:21;;;;;;;22.30;10.63;;;;;;;11.50;67.49;100692.19;5021631;28;20052;-42
2023/04/30 05:52:48;;;;;;;20.15;8.80;;;;;;;11.52;68.24;100694.78;5020272;28;20077;-41
2023/04/30 05:55:14;;;;;;;21.85;9.48;;;;;;;11.50;67.37;100694.78;5022103;28;20152;-43
2023/04/30 05:57:41;;;;;;;24.63;9.63;;;;;;;11.49;67.44;100694.75;5021382;28;20049;-41
2023/04/30 06:00:08;;;;;;;21.45;9.75;;;;;;;11.51;68.46;100693.91;5022515;28;20473;-42
2023/04/30 06:02:35;;;;;;;29.27;10.43;;;;;;;11.52;67.24;100690.44;5013487;28;20045;-40
2023/04/30 06:05:02;;;;;;;23.70;9.65;;;;;;;11.54;67.40;100698.22;5010158;28;20442;-41
2023/04/30 06:07:29;;;;;;;23.42;9.57;;;;;;;11.56;67.45;100696.53;5018910;28;20052;-42
2023/04/30 06:09:56;;;;;;;25.88;11.35;;;;;;;11.61;68.36;100700.00;5012828;28;20061;-42
2023/04/30 06:12:22;;;;;;;23.42;8.65;;;;;;;11.66;67.69;100702.59;5019566;28;20060;-40
2023/04/30 06:14:51;;;;;;;18.95;7.95;;;;;;;11.73;68.01;100699.16;5022052;28;20056;-45
2023/04/30 06:17:18;;;;;;;21.13;9.73;;;;;;;11.80;67.24;100697.47;5023841;28;20053;-43
2023/04/30 06:19:44;;;;;;;21.33;9.40;;;;;;;11.90;67.23;100706.13;5024421;28;20053;-40
2023/04/30 06:22:11;;;;;;;24.45;9.68;;;;;;;11.99;66.97;100706.13;5022882;28;21157;-41
2023/04/30 06:24:38;;;;;;;23.52;8.35;;;;;;;12.07;67.11;100699.28;5017999;28;20049;-43
2023/04/30 06:27:05;;;;;;;22.17;10.32;;;;;;;12.14;67.19;100704.47;5018195;28;20053;-45
2023/04/30 06:29:31;;;;;;;21.30;8.57;;;;;;;12.24;67.82;100706.22;5025394;28;20147;-43
2023/04/30 06:31:58;;;;;;;21.20;9.10;;;;;;;12.42;67.01;100704.47;5022864;28;20041;-42
2023/04/30 06:34:25;;;;;;;22.55;9.27;;;;;;;12.56;66.81;100707.06;5023105;28;21477;-43
2023/04/30 06:36:52;;;;;;;22.00;9.55;;;;;;;12.63;66.78;100713.16;5024599;28;20119;-44
2023/04/30 06:39:18;;;;;;;23.83;9.02;;;;;;;12.65;67.31;100711.41;5025107;28;20057;-41
2023/04/30 06:41:46;;;;;;;21.55;8.52;;;;;;;12.66;66.82;100715.75;5027328;28;20539;-40
2023/04/30 06:44:12;;;;;;;23.25;9.07;;;;;;;12.61;65.91;100710.56;5026744;28;20137;-41
2023/04/30 06:46:39;;;;;;;25.10;9.40;;;;;;;12.58;65.81;100706.25;5025252;28;20616;-42
2023/04/30 06:49:06;;;;;;;24.73;9.88;;;;;;;12.56;65.58;100702.75;5026131;28;20050;-41
2023/04/30 06:51:33;;;;;;;21.35;8.73;;;;;;;12.56;66.35;100707.94;5024284;28;20053;-46
2023/04/30 06:54:00;;;;;;;21.65;8.88;;;;;;;12.58;66.87;100703.63;5031058;28;20509;-42
2023/04/30 06:56:26;;;;;;;21.60;10.25;;;;;;;12.67;67.02;100704.50;5023090;28;20091;-42
2023/04/30 06:58:53;;;;;;;21.00;8.52;;;;;;;12.94;65.95;100708.78;5029476;28;20080;-45
2023/04/30 07:01:19;;;;;;;30.63;11.63;;;;;;;13.38;65.77;100703.47;5024934;28;20099;-41
2023/04/30 07:03:46;;;;;;;24.98;10.95;;;;;;;13.91;65.43;100702.38;5020408;28;20056;-43
2023/04/30 07:06:13;;;;;;;21.58;10.25;;;;;;;14.25;64.25;100704.72;5024092;28;20153;-44
2023/04/30 07:08:40;;;;;;;24.20;10.25;;;;;;;14.68;65.10;100705.25;5028283;28;20045;-44
2023/04/30 07:11:06;;;;;;;31.63;11.80;;;;;;;15.00;63.34;100706.72;5024729;28;20047;-43
2023/04/30 07:13:33;;;;;;;23.58;9.85;;;;;;;15.16;62.49;100708.28;5027022;28;20541;-43
2023/04/30 07:16:00;;;;;;;20.42;10.55;;;;;;;15.22;62.46;100701.25;5029907;28;20053;-43
2023/04/30 07:18:27;;;;;;;18.35;8.38;;;;;;;15.36;62.36;100714.13;5013364;28;20053;-41
2023/04/30 07:20:54;;;;;;;27.55;10.90;;;;;;;15.57;61.75;100710.38;5015253;28;20071;-43
2023/04/30 07:23:20;;;;;;;21.00;8.82;;;;;;;15.86;60.69;100703.91;5018705;28;20530;-41
2023/04/30 07:25:47;;;;;;;23.15;9.50;;;;;;;16.23;60.22;100707.75;5019279;28;20505;-44
2023/04/30 07:28:14;;;;;;;25.38;10.70;;;;;;;16.56;59.74;100704.63;5023844;28;20695;-43
2023/04/30 07:30:41;;;;;;;21.58;9.77;;;;;;;16.89;59.49;100699.66;5015822;28;20049;-41
2023/04/30 07:33:08;;;;;;;26.40;10.65;;;;;;;17.13;59.01;100700.13;5018833;28;20046;-44
2023/04/30 07:35:35;;;;;;;19.98;9.05;;;;;;;17.33;57.83;100698.88;5023145;28;20060;-41
2023/04/30 07:38:03;;;;;;;23.30;10.43;;;;;;;17.61;58.05;100708.75;5019885;28;20507;-44
2023/04/30 07:40:30;;;;;;;28.30;12.02;;;;;;;17.95;57.50;100705.38;5019210;28;20064;-41
2023/04/30 07:43:03;;;;;;;27.63;11.73;;;;;;;18.20;57.56;100704.81;5023872;28;20057;-44
2023/04/30 07:45:30;;;;;;;24.75;12.02;;;;;;;18.52;56.47;100704.06;5023956;28;20057;-40
2023/04/30 07:47:57;;;;;;;25.67;10.77;;;;;;;18.66;54.93;100704.56;5023187;28;20080;-43
2023/04/30 07:50:24;;;;;;;23.40;11.27;;;;;;;18.66;55.49;100698.47;5028377;28;20042;-44
2023/04/30 07:52:50;;;;;;;23.70;10.95;;;;;;;18.84;55.89;100699.72;5026924;28;20132;-43
2023/04/30 07:55:17;;;;;;;30.48;11.13;;;;;;;19.07;54.99;100703.53;5025906;28;20045;-44
2023/04/30 07:57:43;;;;;;;23.10;9.75;;;;;;;19.30;53.73;100699.38;5021365;28;20041;-42
2023/04/30 08:00:11;;;;;;;25.35;10.07;;;;;;;19.29;52.62;100701.16;5024384;28;20058;-41
2023/04/30 08:02:37;;;;;;;21.33;10.18;;;;;;;19.38;52.37;100705.28;5022621;28;20041;-43
2023/04/30 08:05:04;;;;;;;25.65;11.27;;;;;;;19.46;52.44;100707.69;5017509;28;20049;-42
2023/04/30 08:07:31;;;;;;;24.85;11.68;;;;;;;19.61;53.55;100706.34;5019761;28;20049;-43
2023/04/30 08:09:58;;;;;;;22.63;11.07;;;;;;;19.75;52.59;100713.81;5027049;28;20084;-42
2023/04/30 08:12:24;;;;;;;22.80;10.23;;;;;;;19.88;52.20;100709.91;5021350;28;20216;-41
2023/04/30 08:14:59;;;;;;;24.88;10.23;;;;;;;19.99;51.16;100712.22;5003844;28;20128;-45
2023/04/30 08:17:26;;;;;;;25.63;11.77;;;;;;;19.88;50.64;100709.03;5009605;28;20466;-41
2023/04/30 08:19:52;;;;;;;22.67;10.35;;;;;;;19.70;50.78;100710.47;5023523;28;20138;-41
2023/04/30 08:22:19;;;;;;;25.05;11.23;;;;;;;19.62;51.63;100705.47;5022624;28;20045;-43
2023/04/30 08:24:46;;;;;;;22.95;10.45;;;;;;;19.59;51.54;100705.56;5022432;28;20610;-42
2023/04/30 08:27:13;;;;;;;24.15;11.10;;;;;;;19.53;51.95;100712.69;5016912;28;20077;-43
2023/04/30 08:29:39;;;;;;;20.38;9.82;;;;;;;19.26;50.80;100706.50;5020712;28;21025;-40
2023/04/30 08:32:06;;;;;;;26.42;12.70;;;;;;;19.07;51.81;100712.28;5018955;28;20042;-41
2023/04/30 08:34:33;;;;;;;21.88;10.40;;;;;;;19.09;51.66;100704.34;5021169;28;20060;-42
2023/04/30 08:37:00;;;;;;;24.48;12.50;;;;;;;19.18;51.93;100700.63;5021762;28;20045;-43
2023/04/30 08:39:27;;;;;;;23.15;10.43;;;;;;;19.17;51.94;100705.00;5023695;28;20468;-43
2023/04/30 08:41:55;;;;;;;25.13;11.95;;;;;;;19.18;51.44;100692.72;5026686;28;20069;-43
2023/04/30 08:44:22;;;;;;;20.15;9.95;;;;;;;19.21;50.92;100697.88;5018300;28;20065;-42
2023/04/30 08:46:53;;;;;;;26.27;12.25;;;;;;;19.36;50.95;100697.44;5020685;28;20057;-44
2023/04/30 08:49:21;;;;;;;25.15;11.00;;;;;;;19.55;50.77;100701.31;5019689;28;21339;-41
2023/04/30 08:51:51;;;;;;;18.17;9.43;;;;;;;19.57;50.00;100704.72;5024366;28;20052;-45
2023/04/30 08:54:18;;;;;;;20.52;9.18;;;;;;;19.40;49.41;100703.47;5016823;28;20076;-43
2023/04/30 08:56:45;;;;;;;19.33;10.10;;;;;;;19.36;49.91;100696.59;5013393;28;20042;-42
2023/04/30 08:59:12;;;;;;;17.95;8.40;;;;;;;19.20;49.12;100699.66;5015496;28;20074;-44
2023/04/30 09:01:40;;;;;;;21.88;10.55;;;;;;;19.13;50.13;100696.34;5011403;28;20409;-44
2023/04/30 09:04:07;;;;;;;19.42;8.60;;;;;;;19.01;50.11;100687.00;5016894;28;20041;-41
2023/04/30 09:06:34;;;;;;;21.88;10.77;;;;;;;18.83;50.12;100696.25;5012997;28;20867;-45
2023/04/30 09:09:10;;;;;;;26.35;12.25;;;;;;;18.77;50.20;100698.19;5017802;28;20519;-44
2023/04/30 09:11:37;;;;;;;23.45;10.63;;;;;;;18.80;50.84;100695.47;5018109;28;20136;-44
2023/04/30 09:14:04;;;;;;;20.75;10.57;;;;;;;18.80;51.18;100687.59;5017031;28;20053;-41
2023/04/30 09:22:18;;;;;;;20.52;9.80;;;;;;;18.58;51.71;100682.94;5058144;27;20384;-46
2023/04/30 09:24:47;;;;;;;15.50;7.00;;;;;;;18.64;51.31;100677.50;4991799;28;20051;-43
2023/04/30 09:27:17;;;;;;;19.92;8.65;;;;;;;18.56;50.83;100676.84;4999024;28;20060;-45
2023/04/30 09:29:45;;;;;;;19.08;8.52;;;;;;;18.52;50.60;100685.69;4995765;28;20109;-43
2023/04/30 09:32:12;;;;;;;17.45;7.50;;;;;;;18.35;50.85;100682.63;5000585;28;20046;-44
2023/04/30 09:34:39;;;;;;;22.73;9.50;;;;;;;18.29;51.22;100680.16;5002085;28;20057;-41
2023/04/30 09:37:06;;;;;;;18.10;8.80;;;;;;;18.12;50.64;100680.56;4992212;28;20048;-41
2023/04/30 09:39:33;;;;;;;16.10;7.80;;;;;;;18.04;50.71;100683.31;5003434;28;20050;-45
2023/04/30 09:42:09;;;;;;;18.23;8.40;;;;;;;17.97;51.52;100680.00;4998147;28;20052;-42
2023/04/30 09:44:40;;;;;;;21.55;10.30;;;;;;;17.94;51.27;100676.59;5001622;28;20050;-42
2023/04/30 09:49:50;;;;;;;24.67;13.32;;;;;;;18.13;50.91;100661.31;5046330;27;20399;-44
2023/04/30 09:52:19;;;;;;;21.13;11.25;;;;;;;17.99;51.85;100669.47;5014423;28;20060;-45
2023/04/30 09:54:46;;;;;;;27.70;9.30;;;;;;;17.99;51.48;100666.84;5015581;28;20454;-42
2023/04/30 09:57:15;;;;;;;21.52;12.63;;;;;;;17.93;52.28;100670.47;5014533;28;20133;-46
2023/04/30 09:59:44;;;;;;;22.58;11.07;;;;;;;17.96;52.16;100670.41;5015311;28;20139;-41
2023/04/30 10:02:15;;;;;;;21.60;9.20;;;;;;;18.02;52.04;100668.53;5008059;28;20482;-40
2023/04/30 10:04:43;;;;;;;19.67;11.70;;;;;;;18.05;52.13;100669.34;5010639;28;20053;-43
2023/04/30 10:07:15;;;;;;;17.52;8.35;;;;;;;18.02;52.45;100663.28;5014098;28;20708;-42
2023/04/30 10:12:24;;;;;;;17.35;7.95;;;;;;;18.10;52.92;100651.75;5020721;27;20394;-44
2023/04/30 10:14:56;;;;;;;18.38;9.25;;;;;;;17.91;52.71;100656.56;5049006;28;20050;-42
2023/04/30 10:17:27;;;;;;;22.13;10.00;;;;;;;17.93;52.92;100659.16;5022300;28;20091;-47
2023/04/30 10:20:00;;;;;;;16.55;6.93;;;;;;;17.90;52.53;100659.22;5022776;28;20084;-42
2023/04/30 10:22:29;;;;;;;16.45;8.00;;;;;;;17.98;52.40;100658.16;5020843;28;20041;-43
2023/04/30 10:24:56;;;;;;;17.77;7.63;;;;;;;18.15;52.04;100648.16;5023549;28;20477;-43
2023/04/30 10:27:22;;;;;;;14.00;6.82;;;;;;;18.34;51.38;100656.44;5021378;28;20076;-43
2023/04/30 10:29:50;;;;;;;16.95;8.18;;;;;;;18.61;51.86;100656.63;5022403;28;20042;-42
2023/04/30 10:32:18;;;;;;;13.75;7.47;;;;;;;18.77;51.96;100649.19;5021053;28;20120;-44
2023/04/30 10:37:30;;;;;;;17.63;7.80;;;;;;;18.63;51.37;100646.94;5078648;27;20436;-43
2023/04/30 10:39:57;;;;;;;;;;;;;;;18.48;51.73;100650.84;5043822;28;20045;-42
2023/04/30 10:42:23;;;;;;;20.42;9.10;;;;;;;18.55;51.97;100655.03;5040888;28;20010;-45
2023/04/30 10:44:50;;;;;;;20.00;8.88;;;;;;;18.48;51.93;100648.22;5040462;28;20069;-45
2023/04/30 10:47:18;;;;;;;20.50;9.63;;;;;;;18.43;51.53;100642.22;5039238;28;20073;-45
2023/04/30 10:49:47;;;;;;;24.40;12.63;;;;;;;18.39;51.80;100646.69;5038233;28;20635;-44
2023/04/30 10:52:25;;;;;;;20.38;9.10;;;;;;;18.38;52.21;100647.59;5040126;28;20056;-45
2023/04/30 10:54:51;;;;;;;20.77;9.75;;;;;;;18.44;52.50;100642.16;5040291;28;20712;-43
2023/04/30 10:57:20;;;;;;;18.17;8.25;;;;;;;18.40;51.96;100643.16;5040633;28;20072;-41
2023/04/30 11:02:38;;;;;;;19.85;9.55;;;;;;;18.16;51.59;100640.25;5065854;27;20417;-43
2023/04/30 11:07:50;;;;;;;23.55;10.77;;;;;;;18.31;52.63;100638.16;5044191;28;20392;-43
2023/04/30 11:10:22;;;;;;;20.05;10.32;;;;;;;18.40;52.51;100637.91;5030704;28;20556;-42
2023/04/30 11:12:50;;;;;;;22.40;11.77;;;;;;;18.58;52.17;100625.22;5024614;28;20046;-42
2023/04/30 11:15:19;;;;;;;19.70;10.00;;;;;;;18.80;52.83;100624.63;5031533;28;20079;-44
2023/04/30 11:17:48;;;;;;;19.52;10.13;;;;;;;19.03;52.37;100629.22;5007763;28;20045;-42
2023/04/30 11:20:21;;;;;;;13.60;6.75;;;;;;;19.05;51.18;100614.28;5012822;28;20137;-43
2023/04/30 11:23:08;;;;;;;17.88;8.55;;;;;;;18.96;50.49;100620.66;5013707;28;20050;-44
2023/04/30 11:25:42;;;;;;;13.20;8.40;;;;;;;18.95;50.26;100613.69;5020855;28;20073;-41
2023/04/30 11:28:15;;;;;;;18.00;10.18;;;;;;;19.01;51.01;100612.66;5015609;28;20085;-46
2023/04/30 11:30:59;;;;;;;22.35;11.40;;;;;;;19.20;51.88;100618.25;5013814;28;20050;-45
2023/04/30 11:33:27;;;;;;;18.70;10.13;;;;;;;19.33;51.07;100607.38;5003799;28;20049;-43
2023/04/30 11:35:56;;;;;;;17.70;8.50;;;;;;;19.29;50.31;100605.75;5013446;28;20665;-47
2023/04/30 11:38:28;;;;;;;14.15;7.07;;;;;;;19.29;50.73;100611.00;5020548;28;20100;-45
2023/04/30 11:40:56;;;;;;;16.65;10.18;;;;;;;19.12;50.10;100609.75;5008746;28;20050;-45
2023/04/30 11:43:26;;;;;;;13.10;7.22;;;;;;;19.09;49.72;100601.97;5009503;28;20054;-46
2023/04/30 11:46:16;;;;;;;21.23;11.13;;;;;;;19.07;51.59;100606.38;5005886;28;20103;-45
2023/04/30 11:48:44;;;;;;;24.83;12.18;;;;;;;19.27;51.37;100598.78;5011802;28;20125;-44
2023/04/30 11:53:50;;;;;;;23.77;13.20;;;;;;;19.85;52.42;100599.63;5011036;27;20412;-45
2023/04/30 11:56:20;;;;;;;16.88;9.35;;;;;;;19.95;51.62;100604.56;5007745;28;20038;-46
2023/04/30 11:58:48;;;;;;;20.13;9.35;;;;;;;20.10;50.83;100597.97;5008131;28;20045;-44
2023/04/30 12:01:15;;;;;;;18.00;9.65;;;;;;;20.04;50.41;100599.03;5011401;28;20046;-42